Trout Creek, MT (59874)

1:21 AM MDT on September 02, 2015 (GMT -0600)
Whitepine area | | Change Station
CLOSE
Current Station
Personal Weather Station
Location: Trout Creek, MT
Elevation: 2550 ft
Nearby Weather Stations

Elev 2550 ft 47.77 °N, 115.50 °W | Updated 47 seconds ago

Clear
Clear
52.7 °F
Feels Like 52.7 °F
N
1.6
Wind Variable Wind from WSW
Gusts 1.6 mph

Today
High -- | Low -- °F
--% Chance of Precip.
Yesterday
High -- | Low -- °F
Precip. -- in
7:01 AM 8:21 PM
Waning Gibbous, 82% visible
Pressure 29.73 in
Visibility 10.0 miles
Clouds Clear
Dew Point 42 °F
Humidity 65%
Rainfall 0.00 in
Snow Depth Not available.
UV 0 out of 12
Pollen 8.10 out of 12
Air Quality Not available.
Flu Activity Not available.
METAR KSZT 020715Z AUTO 00000KT 10SM CLR 12/08 A2973 RMK AO2
Pressure 29.73 in
Visibility 10.0 miles
Clouds Clear
Dew Point 42 °F
Humidity 65%
Rainfall 0.00 in
Snow Depth Not available.
UV 0 out of 12
Pollen 8.10 out of 12
Air Quality Not available.
Flu Activity Not available.
METAR KSZT 020715Z AUTO 00000KT 10SM CLR 12/08 A2973 RMK AO2

10-Day Weather Forecast

×

Almanac

Astronomy

Sep. 02, 2015 Rise Set
Actual Time
Civil Twilight
Nautical Twilight
Astronomical Twilight
Moon
Length of Visible Light
Length of Day
Tomorrow will be .
, % of the Moon is Illuminated

Today's Extremes

State Highs State Lows

Community

WunderPhotos

Upload Photos

1,851,721 photos uploaded!

WunderBlogs® & News

Nearby

Air Quality

  Air Quality AQ Index Pollutant
Not available.

Snow Depth

Station Depth Elevation

Earthquake Activity

City Distance Mag. Time & Date
Minimum magnitude displayed is 2.5.

Coastal Water Temperatures

Place Temperature

Stations

Nearby Weather Stations

Station Location Temp. Windchill Dew Point Humidity Wind Precip. Elev Updated Type